createdAt,value
2022-11-28T00:05:07.574Z,83.22
2022-11-28T00:15:07.635Z,88.13
2022-11-28T00:25:07.941Z,90.25
2022-11-28T00:35:07.984Z,89.79
2022-11-28T00:45:08.302Z,90.25
2022-11-28T00:55:08.383Z,90.97
2022-11-28T01:05:08.717Z,90.45
2022-11-28T01:15:08.776Z,93.44
2022-11-28T01:25:09.091Z,93.23
2022-11-28T01:35:09.159Z,93.75
2022-11-28T01:45:09.470Z,93.65
2022-11-28T01:55:09.553Z,93.65
2022-11-28T02:05:09.884Z,94.06
2022-11-28T02:15:09.950Z,94.63
2022-11-28T02:25:10.263Z,96.85
2022-11-28T02:35:10.332Z,97.62
2022-11-28T02:45:10.798Z,98.24
2022-11-28T02:55:10.766Z,97.62
2022-11-28T03:05:10.979Z,96.85
2022-11-28T03:15:11.211Z,97.37
2022-11-28T03:25:11.499Z,97.78
2022-11-28T03:35:11.325Z,96.44
2022-11-28T03:45:11.658Z,98.03
2022-11-28T03:55:11.722Z,97.93
2022-11-28T04:05:11.939Z,96.89
2022-11-28T04:15:11.988Z,95.86
2022-11-28T04:25:12.328Z,96.58
2022-11-28T04:35:12.388Z,96.89
2022-11-28T04:45:12.907Z,97.72
2022-11-28T04:55:12.747Z,96.79
2022-11-28T05:05:13.085Z,97.72
2022-11-28T05:15:13.319Z,97.93
2022-11-28T05:25:13.414Z,98.14
2022-11-28T05:35:13.464Z,98.66
2022-11-28T05:45:13.802Z,99.18
2022-11-28T05:55:13.866Z,99.07
2022-11-28T06:05:40.299Z,98.66
2022-11-28T06:15:15.176Z,99.22
2022-11-28T06:25:14.490Z,99.54
2022-11-28T06:35:14.712Z,99.99
2022-11-28T06:45:14.881Z,99.49
2022-11-28T06:55:14.831Z,99.07
2022-11-28T07:05:15.161Z,98.86
2022-11-28T07:15:15.219Z,99.28
2022-11-28T07:25:15.826Z,99.55
2022-11-28T07:35:15.678Z,97.89
2022-11-28T07:45:15.808Z,97.74
2022-11-28T07:55:15.996Z,97.85
2022-11-28T08:05:16.349Z,97.28
2022-11-28T08:15:16.480Z,97.44
2022-11-28T08:25:16.483Z,96.78
2022-11-28T08:35:16.650Z,95.90
2022-11-28T08:45:17.040Z,95.61
2022-11-28T08:55:19.932Z,94.68
2022-11-28T09:05:17.221Z,92.40
2022-11-28T09:15:17.385Z,91.90
2022-11-28T09:25:17.615Z,90.93
2022-11-28T09:35:17.786Z,90.64
2022-11-28T09:45:18.015Z,91.61
2022-11-28T09:55:18.186Z,92.68
2022-11-28T10:05:18.410Z,93.26
2022-11-28T10:15:18.588Z,94.09
2022-11-28T10:25:18.859Z,93.07
2022-11-28T10:35:19.304Z,92.12
2022-11-28T10:45:19.165Z,88.37
2022-11-28T10:55:19.351Z,89.71
2022-11-28T11:05:19.580Z,90.18
2022-11-28T11:15:19.745Z,89.79
2022-11-28T11:25:19.971Z,89.09
2022-11-28T11:35:20.129Z,89.23
2022-11-28T11:45:20.366Z,88.41
2022-11-28T11:55:20.551Z,85.97
2022-11-28T12:05:20.766Z,85.99
2022-11-28T12:15:20.929Z,85.74
2022-11-28T12:25:21.162Z,85.47
2022-11-28T12:35:21.329Z,86.42
2022-11-28T12:45:21.562Z,86.62
2022-11-28T12:55:21.731Z,87.30
2022-11-28T13:05:22.640Z,89.01
2022-11-28T13:15:22.195Z,88.31
2022-11-28T13:25:22.396Z,88.41
2022-11-28T13:35:22.565Z,89.75
2022-11-28T13:45:28.421Z,90.20
2022-11-28T13:55:23.982Z,92.55
2022-11-28T14:05:26.435Z,92.60
2022-11-28T14:15:23.325Z,93.36
2022-11-28T14:25:23.719Z,90.18
2022-11-28T14:35:23.668Z,89.76
2022-11-28T14:45:23.787Z,86.21
2022-11-28T14:55:24.233Z,85.43
2022-11-28T15:05:24.125Z,86.97
2022-11-28T15:15:24.289Z,86.91
2022-11-28T15:25:24.520Z,86.29
2022-11-28T15:35:24.692Z,88.14
2022-11-28T15:45:24.926Z,89.83
2022-11-28T15:55:25.297Z,90.96
2022-11-28T16:05:25.299Z,93.68
2022-11-28T16:15:25.465Z,93.52
2022-11-28T16:25:25.665Z,94.45
2022-11-28T16:35:25.847Z,97.06
2022-11-28T16:45:26.114Z,97.89
2022-11-28T16:55:26.062Z,99.02
2022-11-28T17:05:26.323Z,99.38
2022-11-28T17:15:26.891Z,99.79
2022-11-28T17:25:26.661Z,99.33
2022-11-28T17:35:27.139Z,98.50
2022-11-28T17:45:27.066Z,98.61
2022-11-28T17:55:27.200Z,97.94
2022-11-28T18:05:27.454Z,87.26
2022-11-28T18:15:27.529Z,86.47
2022-11-28T18:25:27.927Z,90.14
2022-11-28T18:35:27.880Z,87.30
2022-11-28T18:45:28.275Z,76.10
2022-11-28T18:55:28.114Z,77.68
2022-11-28T19:05:28.317Z,79.05
2022-11-28T19:15:28.697Z,79.29
2022-11-28T19:25:28.679Z,82.24
2022-11-28T19:35:28.854Z,80.15
2022-11-28T19:45:29.289Z,82.65
2022-11-28T19:55:29.498Z,88.12
2022-11-28T20:05:29.404Z,91.25
2022-11-28T20:15:29.555Z,95.10
2022-11-28T20:25:30.044Z,95.73
2022-11-28T20:35:30.008Z,92.55
2022-11-28T20:45:30.180Z,93.01
2022-11-28T20:55:30.252Z,91.97
2022-11-28T21:05:30.488Z,95.17
2022-11-28T21:15:30.673Z,97.94
2022-11-28T21:25:31.101Z,99.63
2022-11-28T21:35:31.044Z,99.99
2022-11-28T21:45:31.250Z,99.99
2022-11-28T21:55:31.261Z,99.99
2022-11-28T22:05:31.613Z,99.99
2022-11-28T22:15:31.556Z,99.99
2022-11-28T22:25:31.845Z,99.99
2022-11-28T22:35:31.983Z,99.99
2022-11-28T22:45:32.135Z,99.99
2022-11-28T22:55:32.354Z,99.99
2022-11-28T23:05:32.391Z,99.99
2022-11-28T23:15:32.592Z,99.99
2022-11-28T23:25:32.897Z,99.99
2022-11-28T23:35:32.859Z,99.99
2022-11-28T23:45:33.009Z,99.99
2022-11-28T23:55:33.116Z,99.99
